ESNU/UME METAR and TAF weather

Enter ICAO airport designator
Station Type Date Time Source
ESNU METAR 2019/10/18 05:50 UTC NOAA

ESNU 180550Z 29002KT 7000 BR SCT003 OVC010 02/02 Q1010


Station Type Date Time Source
ESNU Decoded METAR 2019/10/18 05:50 UTC NOAA

Umea Flygplats, Sweden (ESNU) 63-48N 020-17E 14M
Oct 18, 2019 - 01:50 AM EDT / 2019.10.18 0550 UTC
Wind: from the WNW (290 degrees) at 2 MPH (2 KT):0
Visibility: 4 mile(s):0
Sky conditions: overcast
Weather: mist
Temperature: 35 F (2 C)
Dew Point: 35 F (2 C)
Relative Humidity: 100%
Pressure (altimeter): 29.83 in. Hg (1010 hPa)
ob: ESNU 180550Z 29002KT 7000 BR SCT003 OVC010 02/02 Q1010
cycle: 6

Station Type Date Time Source
ESNU TAF 2019/01/04 00:39 UTC NOAA

TAF TAF ESNU 042330Z 0500/0524 34002KT CAVOK PROB40 0500/0503 BKN008

Example: see airport list